Time;durP1;ratioP1;P1;durP2;ratioP2;P2;SDS_P1;SDS_P2;PMS_P1;PMS_P2;Temp;Humidity;BMP_temperature;BMP_pressure;BME280_temperature;BME280_humidity;BME280_pressure;Samples;Min_cycle;Max_cycle;Signal;HPM_P1;HPM_P2
2022/06/29 00:00:44;;;;;;;2.85;1.90;;;;;;;19.95;52.36;98994.22;5032389;28;20037;-78
2022/06/29 00:03:10;;;;;;;1.65;1.45;;;;;;;19.86;52.41;98982.50;5013786;28;20507;-78
2022/06/29 00:05:36;;;;;;;2.22;1.95;;;;;;;19.92;52.68;98990.22;5030498;28;20033;-78
2022/06/29 00:08:01;;;;;;;2.53;1.77;;;;;;;19.96;52.18;98993.91;5030499;28;20029;-78
2022/06/29 00:10:27;;;;;;;2.25;1.90;;;;;;;19.97;52.04;99000.94;5030032;28;20040;-78
2022/06/29 00:12:53;;;;;;;4.68;1.92;;;;;;;19.84;52.93;99006.38;5030248;28;20120;-78
2022/06/29 00:15:19;;;;;;;6.88;2.30;;;;;;;19.52;53.49;98996.53;5014537;28;20025;-78
2022/06/29 00:17:45;;;;;;;1.85;1.70;;;;;;;19.90;52.30;98994.31;5030720;28;20063;-78
2022/06/29 00:20:12;;;;;;;2.10;2.00;;;;;;;20.06;52.23;99012.66;5030473;28;20416;-78
2022/06/29 00:22:38;;;;;;;2.83;2.03;;;;;;;19.61;53.89;98988.50;5030157;28;20037;-78
2022/06/29 00:25:04;;;;;;;2.05;1.65;;;;;;;19.71;52.88;98996.38;5030584;28;20033;-78
2022/06/29 00:27:30;;;;;;;2.05;1.85;;;;;;;19.77;52.90;98995.97;5009245;28;20524;-78
2022/06/29 00:29:55;;;;;;;2.05;1.83;;;;;;;19.75;52.75;99000.09;5011281;28;20523;-78
2022/06/29 00:32:21;;;;;;;2.72;1.50;;;;;;;19.73;53.10;98991.47;5021872;28;20059;-78
2022/06/29 00:34:46;;;;;;;1.73;1.60;;;;;;;19.78;52.68;98996.78;5026553;28;20048;-78
2022/06/29 00:37:12;;;;;;;2.97;1.95;;;;;;;19.80;52.49;98978.31;5029108;28;20033;-78
2022/06/29 00:39:38;;;;;;;2.00;1.67;;;;;;;19.79;52.70;98974.78;5028672;28;20033;-78
2022/06/29 00:42:03;;;;;;;3.28;2.08;;;;;;;19.80;52.99;98994.56;5026059;28;20029;-78
2022/06/29 00:44:29;;;;;;;4.55;2.08;;;;;;;19.79;52.75;98988.34;5028346;28;20052;-78
2022/06/29 00:46:59;;;;;;;3.03;1.75;;;;;;;19.77;53.19;98979.72;5027014;28;20067;-78
2022/06/29 00:49:27;;;;;;;3.00;1.92;;;;;;;19.24;54.43;98976.75;5027662;28;20037;-78
2022/06/29 00:52:08;;;;;;;3.03;1.58;;;;;;;19.60;53.51;98984.16;5024511;28;20041;-78
2022/06/29 00:54:51;;;;;;;3.17;1.75;;;;;;;19.61;53.01;98978.47;5024598;28;20540;-78
2022/06/29 00:57:25;;;;;;;4.20;1.98;;;;;;;19.71;53.29;98978.22;5027957;28;20026;-78
2022/06/29 00:59:53;;;;;;;2.25;1.88;;;;;;;19.50;53.47;98981.69;5025090;28;20060;-78
2022/06/29 01:02:22;;;;;;;2.28;1.98;;;;;;;19.63;53.32;98978.97;5027660;28;20052;-78
2022/06/29 01:04:48;;;;;;;2.85;1.95;;;;;;;19.54;53.33;98966.44;5029525;28;20041;-78
2022/06/29 01:07:21;;;;;;;2.17;1.88;;;;;;;19.71;52.89;98969.28;5042247;28;20037;-78
2022/06/29 01:09:47;;;;;;;2.25;1.80;;;;;;;19.67;53.26;98971.03;5027909;28;20021;-78
2022/06/29 01:12:13;;;;;;;1.98;1.77;;;;;;;19.56;53.43;98969.63;5028520;28;20028;-78
2022/06/29 01:14:43;;;;;;;3.53;1.60;;;;;;;19.43;53.57;98963.94;5030291;28;20033;-78
2022/06/29 01:17:08;;;;;;;4.88;2.40;;;;;;;19.55;53.81;98973.47;5027366;28;20041;-78
2022/06/29 01:19:34;;;;;;;1.73;1.63;;;;;;;19.49;53.33;98953.81;5027825;28;20041;-78
2022/06/29 01:22:17;;;;;;;2.70;1.92;;;;;;;19.35;53.63;98955.75;5027856;28;20026;-78
2022/06/29 01:24:44;;;;;;;2.55;1.80;;;;;;;19.43;53.76;98963.94;5027775;28;20062;-78
2022/06/29 01:27:11;;;;;;;2.78;1.95;;;;;;;19.29;54.01;98954.19;5009955;28;20092;-78
2022/06/29 01:29:37;;;;;;;2.30;1.77;;;;;;;19.38;53.64;98952.41;5040292;28;20519;-78
2022/06/29 01:32:03;;;;;;;2.00;1.90;;;;;;;19.43;54.00;98952.31;5043600;28;20033;-78
2022/06/29 01:34:30;;;;;;;2.08;1.85;;;;;;;19.50;53.55;98954.59;5026062;28;20460;-79
2022/06/29 01:36:56;;;;;;;2.75;1.95;;;;;;;19.29;53.89;98949.59;4987840;28;1135819;-78
2022/06/29 01:39:21;;;;;;;4.10;2.42;;;;;;;19.00;55.85;98942.91;5029766;28;20032;-78
2022/06/29 01:41:46;;;;;;;3.88;1.70;;;;;;;19.09;54.70;98944.59;5028494;28;20040;-78
2022/06/29 01:44:12;;;;;;;4.85;2.10;;;;;;;18.94;55.73;98925.94;5029898;28;20527;-78
2022/06/29 01:46:37;;;;;;;3.33;2.30;;;;;;;18.70;56.43;98926.13;5027599;28;20061;-78
2022/06/29 01:49:02;;;;;;;1.92;1.70;;;;;;;18.61;56.11;98927.94;5024581;28;20037;-78
2022/06/29 01:51:28;;;;;;;3.03;1.88;;;;;;;18.36;57.08;98931.06;5028319;28;20030;-78
2022/06/29 01:53:53;;;;;;;4.50;2.55;;;;;;;18.06;58.83;98928.06;5028749;28;20555;-78
2022/06/29 01:56:19;;;;;;;5.72;2.45;;;;;;;17.49;60.46;98913.78;5028771;28;20861;-78
2022/06/29 01:58:46;;;;;;;5.35;2.58;;;;;;;17.70;59.17;98914.31;5025393;28;20042;-78
2022/06/29 02:01:12;;;;;;;3.17;2.13;;;;;;;18.37;56.96;98916.44;5029910;28;20466;-78
2022/06/29 02:03:38;;;;;;;3.03;1.98;;;;;;;18.72;55.50;98917.72;5035531;28;20037;-78
2022/06/29 02:06:03;;;;;;;2.70;1.80;;;;;;;18.67;55.32;98920.53;5027542;28;20055;-78
2022/06/29 02:08:29;;;;;;;2.55;2.10;;;;;;;18.24;58.15;98916.44;5026991;28;20047;-78
2022/06/29 02:10:55;;;;;;;4.47;2.42;;;;;;;17.72;59.22;98912.94;5025632;28;20075;-78
2022/06/29 02:13:20;;;;;;;4.30;2.15;;;;;;;18.00;57.78;98913.06;5028247;28;20025;-78
2022/06/29 02:15:46;;;;;;;3.25;2.22;;;;;;;18.19;56.68;98903.00;5027793;28;20045;-78
2022/06/29 02:18:11;;;;;;;2.72;2.10;;;;;;;18.13;57.11;98904.19;5025838;28;20112;-78
2022/06/29 02:20:36;;;;;;;2.90;2.45;;;;;;;17.51;60.90;98918.91;5029548;28;20037;-78
2022/06/29 02:23:02;;;;;;;2.05;1.95;;;;;;;17.80;58.75;98916.88;5029635;28;20040;-77
2022/06/29 02:25:27;;;;;;;3.13;2.05;;;;;;;18.16;56.91;98906.28;5029129;28;20045;-78
2022/06/29 02:27:53;;;;;;;1.80;1.70;;;;;;;18.01;58.11;98911.94;5020362;28;20132;-78
2022/06/29 02:30:18;;;;;;;5.03;1.88;;;;;;;18.26;56.67;98906.13;5027798;28;20037;-78
2022/06/29 02:35:29;;;;;;;1.83;1.70;;;;;;;18.55;55.53;98904.81;5028115;28;20044;-77
2022/06/29 02:37:55;;;;;;;2.30;1.83;;;;;;;18.45;56.16;98913.09;5024220;28;20025;-78
2022/06/29 02:40:21;;;;;;;2.55;1.80;;;;;;;18.47;55.63;98899.28;5025942;28;20030;-78
2022/06/29 02:42:46;;;;;;;5.03;1.90;;;;;;;18.63;55.67;98904.09;5024685;28;20037;-78
2022/06/29 02:45:12;;;;;;;2.25;1.88;;;;;;;18.53;56.06;98911.59;5028515;28;20029;-78
2022/06/29 02:47:37;;;;;;;2.40;2.20;;;;;;;18.43;56.30;98892.84;5023020;28;20036;-78
2022/06/29 02:50:03;;;;;;;3.45;2.38;;;;;;;18.13;58.11;98902.25;5024318;28;20390;-77
2022/06/29 02:52:28;;;;;;;2.63;1.90;;;;;;;18.26;56.24;98890.69;5028849;28;20125;-78
2022/06/29 02:54:54;;;;;;;2.47;2.10;;;;;;;18.51;56.24;98892.19;5027646;28;20049;-78
2022/06/29 02:57:20;;;;;;;2.08;1.88;;;;;;;18.59;55.86;98894.97;5025060;28;20052;-78
2022/06/29 02:59:46;;;;;;;4.68;2.00;;;;;;;18.59;55.97;98896.88;5028304;28;20107;-78
2022/06/29 03:02:11;;;;;;;2.20;2.00;;;;;;;18.59;55.63;98910.41;5025213;28;20029;-78
2022/06/29 03:04:36;;;;;;;3.00;1.98;;;;;;;18.49;56.16;98897.09;5009088;28;20037;-78
2022/06/29 03:07:02;;;;;;;3.15;1.92;;;;;;;18.58;55.81;98885.28;5025828;28;20025;-78
2022/06/29 03:09:28;;;;;;;5.97;2.72;;;;;;;18.26;56.67;98898.81;5026535;28;20056;-78
2022/06/29 03:11:53;;;;;;;3.50;2.45;;;;;;;18.36;56.15;98900.53;5025140;28;20497;-77
2022/06/29 03:14:19;;;;;;;2.35;2.15;;;;;;;18.35;56.46;98890.81;5023918;28;20031;-78
2022/06/29 03:16:44;;;;;;;2.25;2.05;;;;;;;18.09;57.30;98893.16;5023540;28;20477;-78
2022/06/29 03:19:10;;;;;;;3.28;2.38;;;;;;;18.22;57.00;98892.38;5027235;28;20056;-78
2022/06/29 03:21:35;;;;;;;5.50;2.70;;;;;;;18.24;56.66;98897.53;5026226;28;20033;-78
2022/06/29 03:24:03;;;;;;;3.67;2.42;;;;;;;17.88;57.07;98886.50;5025317;28;20119;-78
2022/06/29 03:26:29;;;;;;;2.20;2.10;;;;;;;18.02;57.58;98895.44;5027132;28;20068;-78
2022/06/29 03:28:55;;;;;;;8.38;2.70;;;;;;;17.04;61.39;98898.19;5025647;28;20131;-78
2022/06/29 03:31:20;;;;;;;3.15;2.67;;;;;;;17.21;60.57;98885.81;5027145;28;20030;-78
2022/06/29 03:33:46;;;;;;;2.40;2.20;;;;;;;17.81;58.00;98894.97;5025762;28;20041;-78
2022/06/29 03:36:12;;;;;;;2.78;2.30;;;;;;;17.94;57.62;98901.50;5027139;28;20087;-78
2022/06/29 03:38:37;;;;;;;2.00;1.90;;;;;;;18.14;56.82;98905.78;5025376;28;20382;-78
2022/06/29 03:41:04;;;;;;;2.10;1.98;;;;;;;18.20;56.65;98891.06;5027478;28;20521;-78
2022/06/29 03:43:30;;;;;;;1.90;1.80;;;;;;;18.14;57.29;98894.97;5008479;28;20041;-78
2022/06/29 03:45:55;;;;;;;2.00;1.90;;;;;;;18.00;57.19;98899.56;5007133;28;20366;-78
2022/06/29 03:48:21;;;;;;;4.43;1.73;;;;;;;18.25;57.00;98897.22;5008811;28;20030;-79
2022/06/29 03:50:46;;;;;;;2.88;2.22;;;;;;;18.09;57.26;98903.97;5025262;28;20044;-78
2022/06/29 03:53:11;;;;;;;6.93;2.70;;;;;;;17.94;58.53;98896.09;5027145;28;20034;-78
2022/06/29 03:55:37;;;;;;;4.32;2.42;;;;;;;16.52;64.07;98888.28;5028237;28;20047;-77
2022/06/29 03:58:02;;;;;;;3.15;2.53;;;;;;;16.48;64.05;98889.91;5025360;28;20037;-78
2022/06/29 04:00:28;;;;;;;3.33;2.90;;;;;;;16.45;64.71;98883.19;5020945;28;20038;-78
2022/06/29 04:02:53;;;;;;;2.67;2.50;;;;;;;16.27;66.39;98888.53;5026644;28;20037;-77
2022/06/29 04:05:18;;;;;;;5.03;2.45;;;;;;;16.15;67.48;98896.97;5026102;28;20108;-77
2022/06/29 04:07:44;;;;;;;4.40;3.22;;;;;;;16.09;67.43;98895.41;5026062;28;20088;-77
2022/06/29 04:10:10;;;;;;;5.68;3.13;;;;;;;15.94;66.87;98898.25;5027733;28;20030;-78
2022/06/29 04:12:36;;;;;;;4.65;3.15;;;;;;;16.00;66.89;98886.34;5029975;28;20041;-77
2022/06/29 04:15:05;;;;;;;5.28;2.67;;;;;;;16.13;66.62;98888.38;5026132;28;20025;-78
2022/06/29 04:17:30;;;;;;;3.50;3.20;;;;;;;15.90;67.63;98905.25;5025205;28;20079;-78
2022/06/29 04:19:55;;;;;;;2.78;2.15;;;;;;;16.15;65.44;98894.28;5041268;28;20064;-77
2022/06/29 04:22:22;;;;;;;2.33;2.20;;;;;;;17.18;60.74;98886.41;5024514;28;20028;-77
2022/06/29 04:24:48;;;;;;;4.45;3.20;;;;;;;16.66;65.47;98899.19;5025145;28;20457;-78
2022/06/29 04:27:14;;;;;;;3.13;2.50;;;;;;;17.10;61.60;98887.03;5003724;28;20049;-78
2022/06/29 04:29:39;;;;;;;4.88;2.92;;;;;;;16.95;64.09;98894.56;5025916;28;20056;-78
2022/06/29 04:32:05;;;;;;;3.03;2.58;;;;;;;16.88;63.58;98883.31;5026535;28;20036;-78
2022/06/29 04:34:31;;;;;;;6.07;3.13;;;;;;;16.27;66.34;98899.28;5027285;28;20040;-78
2022/06/29 04:36:56;;;;;;;2.53;2.33;;;;;;;16.99;62.06;98888.25;5027068;28;20064;-78
2022/06/29 04:39:22;;;;;;;3.30;3.00;;;;;;;16.94;65.22;98885.66;5010763;28;20408;-78
2022/06/29 04:41:48;;;;;;;2.70;2.33;;;;;;;17.62;60.39;98896.09;5028931;28;20025;-77
2022/06/29 04:44:14;;;;;;;2.65;2.42;;;;;;;17.67;60.22;98887.91;5032336;28;20028;-78
2022/06/29 04:46:40;;;;;;;6.75;3.50;;;;;;;17.18;66.18;98888.31;5030734;28;20116;-78
2022/06/29 04:49:05;;;;;;;3.92;3.58;;;;;;;16.78;65.36;98886.09;5030408;28;20082;-78
2022/06/29 04:51:32;;;;;;;5.97;3.45;;;;;;;16.99;65.57;98898.28;5031301;28;20030;-77
2022/06/29 04:53:59;;;;;;;4.03;3.50;;;;;;;16.57;66.39;98890.94;5031080;28;20021;-78
2022/06/29 04:56:32;;;;;;;4.75;3.70;;;;;;;16.01;67.32;98879.06;5026866;28;20057;-77
2022/06/29 04:58:59;;;;;;;3.75;3.35;;;;;;;16.56;66.92;98896.59;5042224;28;20025;-77
2022/06/29 05:01:26;;;;;;;4.97;3.63;;;;;;;16.79;66.76;98893.13;5043939;28;20021;-77
2022/06/29 05:03:52;;;;;;;7.03;3.80;;;;;;;16.78;66.92;98899.56;5026176;28;20025;-77
2022/06/29 05:06:20;;;;;;;3.50;3.20;;;;;;;16.67;67.14;98898.09;5026554;28;20029;-78
2022/06/29 05:08:46;;;;;;;6.57;3.40;;;;;;;16.49;66.71;98891.50;5025877;28;20036;-78
2022/06/29 05:11:14;;;;;;;3.03;2.75;;;;;;;16.70;66.05;98894.81;5009945;28;20397;-78
2022/06/29 05:13:42;;;;;;;7.40;3.40;;;;;;;16.96;64.76;98879.97;5027361;28;20032;-78
2022/06/29 05:16:08;;;;;;;2.80;2.60;;;;;;;16.87;64.79;98887.06;5028164;28;20109;-78
2022/06/29 05:18:35;;;;;;;6.10;4.50;;;;;;;17.31;64.82;98881.38;5028600;28;20030;-78
2022/06/29 05:21:00;;;;;;;8.82;3.33;;;;;;;17.56;63.87;98889.16;5029206;28;20029;-78
2022/06/29 05:23:26;;;;;;;9.30;4.10;;;;;;;17.39;63.87;98865.34;5028543;28;20037;-78
2022/06/29 05:25:52;;;;;;;4.63;4.00;;;;;;;17.89;62.88;98883.50;5025613;28;20519;-78
2022/06/29 05:28:18;;;;;;;4.32;2.50;;;;;;;18.14;60.65;98867.97;5010893;28;20187;-78
2022/06/29 05:30:43;;;;;;;7.93;4.47;;;;;;;18.21;63.07;98862.97;5038809;28;20305;-78
2022/06/29 05:33:09;;;;;;;9.23;4.40;;;;;;;17.89;64.53;98869.19;4995527;28;20448;-78
2022/06/29 05:35:34;;;;;;;4.57;4.05;;;;;;;17.59;64.54;98873.16;5027442;28;20022;-78
2022/06/29 05:38:03;;;;;;;5.28;3.85;;;;;;;17.82;64.17;98861.47;5028298;28;20033;-78
2022/06/29 05:40:30;;;;;;;4.30;3.50;;;;;;;17.54;66.40;98878.63;5070123;22;20099;-79
2022/06/29 05:42:57;;;;;;;5.43;3.80;;;;;;;17.23;68.63;98874.75;5036909;28;20025;-82
2022/06/29 05:45:23;;;;;;;8.52;4.03;;;;;;;16.95;68.34;98883.75;5043082;28;20033;-79
2022/06/29 05:47:49;;;;;;;5.90;3.47;;;;;;;17.21;68.20;98880.44;5031293;28;20034;-80
2022/06/29 05:50:14;;;;;;;5.22;3.17;;;;;;;17.51;67.33;98875.72;5034829;28;20037;-79
2022/06/29 05:52:40;;;;;;;7.40;3.60;;;;;;;17.79;65.85;98866.66;5013669;28;20076;-81
2022/06/29 05:55:06;;;;;;;6.30;3.63;;;;;;;18.36;62.45;98876.22;5028533;28;20399;-81
2022/06/29 05:57:33;;;;;;;10.40;3.83;;;;;;;17.85;63.67;98871.69;5014629;28;20040;-81
2022/06/29 06:00:00;;;;;;;6.05;3.60;;;;;;;17.68;65.89;98863.31;5015116;28;20037;-82
2022/06/29 06:02:26;;;;;;;4.18;3.30;;;;;;;17.70;64.93;98877.31;5015025;28;20080;-80
2022/06/29 06:04:52;;;;;;;4.35;3.35;;;;;;;17.62;65.06;98874.50;5025323;28;20045;-79
2022/06/29 06:07:18;;;;;;;4.65;2.72;;;;;;;17.88;65.00;98864.88;5026982;28;20057;-80
2022/06/29 06:10:05;;;;;;;4.47;3.38;;;;;;;18.30;64.71;98872.81;5011595;28;20062;-79
2022/06/29 06:12:31;;;;;;;3.97;2.65;;;;;;;17.87;64.99;98871.38;5010467;28;20571;-79
2022/06/29 06:15:01;;;;;;;8.82;3.17;;;;;;;17.80;64.17;98887.16;5012730;28;20026;-80
2022/06/29 06:17:27;;;;;;;7.95;3.67;;;;;;;17.91;64.73;98875.09;5011895;28;20034;-82
2022/06/29 06:19:54;;;;;;;10.88;3.60;;;;;;;17.96;63.84;98878.53;5016641;28;20124;-81
2022/06/29 06:22:20;;;;;;;6.43;4.32;;;;;;;18.54;63.51;98868.03;5029193;28;20087;-82
2022/06/29 06:24:45;;;;;;;10.98;4.20;;;;;;;18.36;62.96;98879.72;5007665;28;20026;-80
2022/06/29 06:27:10;;;;;;;16.00;4.25;;;;;;;18.40;64.31;98875.31;5007878;28;20116;-80
2022/06/29 06:29:36;;;;;;;11.30;3.92;;;;;;;18.56;64.49;98875.88;5027711;28;20420;-79
2022/06/29 06:32:01;;;;;;;3.28;2.28;;;;;;;18.69;60.98;98872.38;5004395;28;20030;-81
2022/06/29 06:34:27;;;;;;;20.55;3.85;;;;;;;18.99;62.53;98881.75;5026709;28;20402;-82
2022/06/29 06:36:53;;;;;;;17.17;4.45;;;;;;;19.05;62.86;98886.78;5011208;28;20026;-80
2022/06/29 06:39:18;;;;;;;11.77;3.53;;;;;;;19.43;61.48;98881.94;5028940;28;20029;-80
2022/06/29 06:41:44;;;;;;;14.75;3.85;;;;;;;19.69;60.95;98882.94;5014385;28;20025;-80
2022/06/29 06:44:09;;;;;;;28.40;5.03;;;;;;;19.86;60.67;98887.69;5006791;28;20078;-81
2022/06/29 06:46:35;;;;;;;7.93;2.80;;;;;;;20.51;55.89;98871.69;5027380;28;20061;-81
2022/06/29 06:49:00;;;;;;;20.75;4.35;;;;;;;20.15;60.39;98872.59;5029280;28;20037;-81
2022/06/29 06:51:26;;;;;;;13.05;3.85;;;;;;;20.63;57.40;98871.91;5010077;28;20048;-80
2022/06/29 06:53:52;;;;;;;8.73;2.65;;;;;;;20.89;54.71;98876.31;5013335;28;20399;-81
2022/06/29 06:56:18;;;;;;;7.60;2.97;;;;;;;21.02;56.20;98869.16;5005121;28;20026;-82
2022/06/29 06:58:44;;;;;;;13.02;3.42;;;;;;;21.12;57.04;98871.59;5013407;28;20025;-82
2022/06/29 07:01:10;;;;;;;7.22;3.65;;;;;;;20.74;58.75;98867.78;5027248;28;20032;-82
2022/06/29 07:03:36;;;;;;;5.38;2.88;;;;;;;20.85;55.82;98869.91;5027627;28;20494;-80
2022/06/29 07:06:09;;;;;;;6.15;3.90;;;;;;;20.88;57.38;98863.84;5026356;28;20036;-79
2022/06/29 07:08:37;;;;;;;4.50;2.83;;;;;;;20.75;59.81;98867.47;5008649;28;20029;-79
2022/06/29 07:11:04;;;;;;;8.55;3.65;;;;;;;20.16;59.72;98876.09;5010502;28;20497;-80
2022/06/29 07:13:33;;;;;;;7.15;3.65;;;;;;;19.99;60.66;98863.25;5012421;28;20041;-82
2022/06/29 07:15:59;;;;;;;3.88;2.97;;;;;;;20.38;59.69;98862.53;5009793;28;20442;-79
2022/06/29 07:18:24;;;;;;;3.88;2.88;;;;;;;21.00;56.29;98860.53;5009006;28;20538;-79
2022/06/29 07:20:50;;;;;;;4.35;2.72;;;;;;;21.30;55.01;98856.94;5024956;28;20029;-80
2022/06/29 07:23:15;;;;;;;7.20;2.80;;;;;;;21.60;54.28;98863.34;5006981;28;20088;-80
2022/06/29 07:25:40;;;;;;;7.18;3.35;;;;;;;21.38;57.01;98858.06;5010640;28;20022;-81
2022/06/29 07:28:06;;;;;;;13.25;2.83;;;;;;;21.67;54.59;98858.22;5014050;28;20059;-81
2022/06/29 07:30:32;;;;;;;2.67;2.47;;;;;;;21.84;54.23;98860.94;5008987;28;20049;-81
2022/06/29 07:32:57;;;;;;;7.72;3.95;;;;;;;21.56;59.02;98849.59;5011540;28;20034;-82
2022/06/29 07:35:23;;;;;;;6.70;2.97;;;;;;;21.94;54.38;98854.38;5011711;28;20490;-81
2022/06/29 07:37:50;;;;;;;4.18;2.95;;;;;;;21.89;54.51;98862.69;5029061;28;20441;-82
2022/06/29 07:40:15;;;;;;;5.60;4.07;;;;;;;21.85;58.98;98851.69;5028216;28;20030;-80
2022/06/29 07:42:41;;;;;;;5.10;3.28;;;;;;;21.54;56.82;98861.88;5012425;28;20040;-82
2022/06/29 07:45:07;;;;;;;3.88;3.05;;;;;;;22.07;54.98;98862.38;5011134;28;20042;-80
2022/06/29 07:47:32;;;;;;;4.55;3.33;;;;;;;22.29;54.76;98845.84;5013925;28;20038;-81
2022/06/29 07:49:58;;;;;;;5.13;2.90;;;;;;;22.23;56.60;98846.34;4996891;28;20028;-82
2022/06/29 07:52:24;;;;;;;7.97;4.78;;;;;;;22.18;58.62;98846.50;5009596;28;20040;-80
2022/06/29 07:54:50;;;;;;;3.17;2.88;;;;;;;22.58;54.87;98844.28;5011931;28;20034;-82
2022/06/29 07:57:15;;;;;;;5.00;3.40;;;;;;;22.61;54.57;98840.94;5012139;28;20032;-81
2022/06/29 07:59:41;;;;;;;6.75;4.25;;;;;;;22.40;60.38;98829.97;5012673;28;20060;-79
2022/06/29 08:02:06;;;;;;;6.30;4.20;;;;;;;21.80;59.34;98827.34;5006396;28;20081;-82
2022/06/29 08:04:32;;;;;;;6.22;4.55;;;;;;;21.62;59.77;98842.09;4995042;28;20038;-81
2022/06/29 08:06:57;;;;;;;5.07;4.57;;;;;;;21.93;60.06;98833.78;5011416;28;20060;-80
2022/06/29 08:09:23;;;;;;;8.88;4.80;;;;;;;21.92;60.05;98832.16;5033630;28;20030;-82
2022/06/29 08:11:51;;;;;;;4.97;4.38;;;;;;;22.03;59.76;98842.38;5032295;28;20132;-82
2022/06/29 08:14:16;;;;;;;8.98;4.50;;;;;;;22.07;59.97;98831.66;5017477;28;20030;-80
2022/06/29 08:16:42;;;;;;;7.28;4.25;;;;;;;22.29;60.12;98836.88;5012984;28;20038;-79
2022/06/29 08:19:08;;;;;;;9.43;4.40;;;;;;;22.23;61.42;98836.25;5015846;28;20030;-82
2022/06/29 08:21:33;;;;;;;7.78;4.30;;;;;;;22.21;59.49;98821.41;4990761;28;20049;-82
2022/06/29 08:23:58;;;;;;;5.05;4.22;;;;;;;22.56;61.26;98827.50;5021520;28;20025;-80
2022/06/29 08:26:24;;;;;;;5.05;4.65;;;;;;;22.67;59.01;98823.31;5016048;28;20053;-82
2022/06/29 08:28:49;;;;;;;10.55;5.05;;;;;;;22.94;56.96;98822.81;5016721;28;20216;-82
2022/06/29 08:31:14;;;;;;;4.70;4.30;;;;;;;22.70;57.44;98811.75;5037351;28;20022;-80
2022/06/29 08:33:40;;;;;;;5.25;4.65;;;;;;;22.73;57.98;98822.00;5025397;28;20033;-82
2022/06/29 08:36:06;;;;;;;4.85;4.45;;;;;;;22.96;57.50;98826.00;5020276;28;20037;-80
2022/06/29 08:38:31;;;;;;;9.57;4.93;;;;;;;22.86;58.13;98821.78;5020214;28;20513;-80
2022/06/29 08:40:57;;;;;;;6.25;4.90;;;;;;;22.39;58.29;98821.00;5013076;28;20077;-82
2022/06/29 08:43:23;;;;;;;12.25;4.90;;;;;;;22.50;56.88;98826.88;5027877;28;20396;-79
2022/06/29 08:45:49;;;;;;;4.60;4.15;;;;;;;22.12;58.17;98824.13;5016964;28;20030;-80
2022/06/29 08:48:16;;;;;;;5.28;4.90;;;;;;;22.84;56.45;98817.78;5022944;28;20037;-81
2022/06/29 08:50:43;;;;;;;5.88;4.65;;;;;;;22.61;57.57;98814.53;5028236;28;20386;-80
2022/06/29 08:53:13;;;;;;;4.45;4.13;;;;;;;22.39;58.63;98812.84;5016946;28;20514;-79
2022/06/29 08:55:44;;;;;;;3.30;3.10;;;;;;;22.91;57.41;98810.66;5032612;28;20076;-82
2022/06/29 08:58:17;;;;;;;4.75;4.35;;;;;;;22.69;58.43;98810.19;5023768;28;20033;-80
2022/06/29 09:00:42;;;;;;;4.45;4.03;;;;;;;22.79;58.50;98816.03;5013079;28;20029;-80
2022/06/29 09:03:08;;;;;;;4.97;4.30;;;;;;;22.63;58.26;98806.81;5013098;28;20745;-80
2022/06/29 09:05:34;;;;;;;5.53;4.15;;;;;;;22.90;59.04;98816.44;5015936;28;20030;-81
2022/06/29 09:08:00;;;;;;;8.50;4.68;;;;;;;22.83;58.33;98811.53;5032087;28;20041;-82
2022/06/29 09:10:29;;;;;;;4.30;3.95;;;;;;;23.08;59.10;98815.22;5013531;28;20025;-80
2022/06/29 09:12:57;;;;;;;5.70;4.30;;;;;;;22.86;58.87;98820.97;5015127;28;20029;-80
2022/06/29 09:15:34;;;;;;;6.90;4.57;;;;;;;22.75;58.92;98830.63;5014423;28;20120;-81
2022/06/29 09:18:02;;;;;;;5.53;5.00;;;;;;;22.52;60.30;98813.72;5014327;28;20394;-80
2022/06/29 09:20:39;;;;;;;6.05;5.45;;;;;;;22.45;59.85;98823.53;5012558;28;20037;-81
2022/06/29 09:23:04;;;;;;;6.57;5.40;;;;;;;22.79;59.94;98828.84;5012747;28;20034;-80
2022/06/29 09:25:31;;;;;;;6.15;5.55;;;;;;;22.96;60.31;98826.00;5013137;28;20040;-83
2022/06/29 09:27:57;;;;;;;5.25;4.68;;;;;;;23.33;58.96;98827.06;5023323;28;20738;-80
2022/06/29 09:30:35;;;;;;;5.75;5.25;;;;;;;23.11;59.30;98820.78;5030467;28;20034;-82
2022/06/29 09:33:05;;;;;;;5.28;4.63;;;;;;;23.13;59.78;98826.69;5029085;28;20033;-80
2022/06/29 09:35:32;;;;;;;7.43;5.47;;;;;;;22.57;61.63;98821.72;5014001;28;20033;-82
2022/06/29 09:38:19;;;;;;;9.15;5.25;;;;;;;22.71;60.49;98829.69;5016730;28;20033;-80
2022/06/29 09:41:04;;;;;;;5.10;4.60;;;;;;;22.79;59.71;98832.38;5012459;28;20111;-82
2022/06/29 09:43:31;;;;;;;5.38;4.68;;;;;;;22.88;59.36;98819.50;5014952;28;20427;-82
2022/06/29 09:45:57;;;;;;;5.97;4.50;;;;;;;22.82;59.16;98817.31;5016303;28;20026;-82
2022/06/29 09:48:26;;;;;;;6.03;5.28;;;;;;;23.15;59.47;98825.59;4997959;28;20033;-82
2022/06/29 09:50:52;;;;;;;11.20;5.32;;;;;;;23.49;57.76;98831.59;5013406;28;20036;-80
2022/06/29 09:53:19;;;;;;;9.20;5.25;;;;;;;23.54;58.71;98830.59;5011992;28;20057;-82
2022/06/29 09:55:52;;;;;;;8.30;4.78;;;;;;;23.49;59.40;98828.88;5009279;28;20041;-81
2022/06/29 09:58:28;;;;;;;5.75;5.25;;;;;;;23.51;59.98;98826.63;5008727;28;20042;-80
2022/06/29 10:03:39;;;;;;;5.90;5.15;;;;;;;22.67;60.81;98818.66;5016231;28;20106;-80
2022/06/29 10:06:05;;;;;;;5.60;5.10;;;;;;;23.12;60.46;98818.88;5030356;28;20030;-83
2022/06/29 10:08:32;;;;;;;4.90;4.40;;;;;;;23.57;57.87;98817.09;5025348;28;20117;-83
2022/06/29 10:13:39;;;;;;;5.30;4.90;;;;;;;24.03;56.63;98818.72;5013911;28;20026;-80
2022/06/29 10:13:57;;;;;;;7.43;5.20;;;;;;;23.42;57.46;98820.44;5011703;28;20041;-82
2022/06/29 10:17:06;;;;;;;6.25;5.63;;;;;;;23.79;57.27;98815.94;5012161;28;20033;-80
2022/06/29 10:19:34;;;;;;;7.93;4.93;;;;;;;23.88;57.48;98824.81;5009355;28;20108;-82
2022/06/29 10:22:01;;;;;;;5.97;4.47;;;;;;;24.30;55.95;98814.63;5017785;28;20025;-83
2022/06/29 10:24:27;;;;;;;5.68;4.90;;;;;;;23.59;57.51;98811.34;5020047;28;20034;-82
2022/06/29 10:26:53;;;;;;;5.88;4.97;;;;;;;23.62;57.12;98810.66;5028501;28;20534;-81
2022/06/29 10:29:18;;;;;;;6.07;4.57;;;;;;;23.33;57.60;98811.53;5018535;28;20085;-81
2022/06/29 10:31:59;;;;;;;5.65;5.03;;;;;;;23.89;56.96;98820.19;5007322;28;20462;-82
2022/06/29 10:34:28;;;;;;;5.20;4.70;;;;;;;24.16;56.27;98812.19;5011503;28;20017;-82
2022/06/29 10:37:02;;;;;;;5.43;4.95;;;;;;;24.17;55.39;98813.81;5011809;28;20025;-82
2022/06/29 10:39:48;;;;;;;4.78;4.45;;;;;;;24.75;54.77;98815.34;5013223;28;20040;-80
2022/06/29 10:45:09;;;;;;;6.43;5.25;;;;;;;24.83;54.41;98806.25;5013166;28;20108;-82
2022/06/29 10:47:35;;;;;;;5.65;5.05;;;;;;;24.40;55.70;98809.50;5005177;28;20041;-80
2022/06/29 10:50:20;;;;;;;7.25;5.00;;;;;;;24.58;55.12;98810.91;5019082;28;20026;-80
2022/06/29 10:52:48;;;;;;;4.85;3.90;;;;;;;25.56;52.99;98803.38;5011286;28;20058;-81
2022/06/29 10:55:15;;;;;;;6.47;5.10;;;;;;;24.66;54.47;98800.97;5010611;28;20058;-82
2022/06/29 10:57:44;;;;;;;5.32;4.70;;;;;;;25.63;53.02;98800.84;5012338;28;20394;-80
2022/06/29 11:00:17;;;;;;;4.50;4.15;;;;;;;25.44;53.74;98797.97;5068113;22;20539;-80
2022/06/29 11:02:44;;;;;;;5.45;4.95;;;;;;;25.56;52.85;98793.22;5029253;28;20065;-80
2022/06/29 11:05:11;;;;;;;6.45;5.25;;;;;;;24.84;54.55;98786.00;5029553;28;20044;-80
2022/06/29 11:13:11;;;;;;;5.05;4.55;;;;;;;25.13;54.59;98771.25;5028511;28;20104;-80
2022/06/29 11:15:47;;;;;;;5.53;5.03;;;;;;;24.70;55.42;98785.53;5028920;28;20481;-80
2022/06/29 11:18:14;;;;;;;6.65;6.05;;;;;;;24.73;54.52;98773.91;5022707;28;20217;-80
2022/06/29 11:20:42;;;;;;;6.10;5.60;;;;;;;24.78;55.78;98792.03;5027157;28;20112;-79
2022/06/29 11:23:14;;;;;;;6.05;5.43;;;;;;;25.11;54.39;98779.00;5029146;28;20048;-80
2022/06/29 11:25:47;;;;;;;7.00;5.65;;;;;;;25.60;54.03;98785.16;5031013;28;20088;-80
2022/06/29 11:28:25;;;;;;;10.07;6.20;;;;;;;24.89;54.75;98763.13;5027305;28;20041;-80
2022/06/29 11:30:59;;;;;;;5.90;5.40;;;;;;;25.66;53.71;98772.81;5001976;28;20124;-80
2022/06/29 11:33:30;;;;;;;8.27;5.43;;;;;;;26.53;51.43;98768.03;5044307;28;20025;-80
2022/06/29 11:35:55;;;;;;;4.03;3.72;;;;;;;26.86;50.88;98765.72;5010322;28;20053;-80
2022/06/29 11:38:27;;;;;;;6.43;4.78;;;;;;;26.61;50.91;98759.63;5025921;28;20493;-80
2022/06/29 11:40:54;;;;;;;8.60;4.70;;;;;;;26.54;51.54;98770.41;5027896;28;20034;-80
2022/06/29 11:43:20;;;;;;;6.18;5.38;;;;;;;25.39;52.71;98766.16;5029335;28;20033;-80
2022/06/29 11:45:54;;;;;;;4.95;4.47;;;;;;;25.71;52.48;98753.41;5026570;28;20044;-80